sensor_id;sensor_type;location;lat;lon;timestamp;P1;durP1;ratioP1;P2;durP2;ratioP2
76131;SDS011;64877;50.994;13.650;2023-03-04T00:00:27;39.17;;;14.48;;
76131;SDS011;64877;50.994;13.650;2023-03-04T00:02:53;35.65;;;15.32;;
76131;SDS011;64877;50.994;13.650;2023-03-04T00:05:18;36.63;;;15.13;;
76131;SDS011;64877;50.994;13.650;2023-03-04T00:07:44;36.40;;;15.65;;
76131;SDS011;64877;50.994;13.650;2023-03-04T00:10:09;37.15;;;14.57;;
76131;SDS011;64877;50.994;13.650;2023-03-04T00:12:35;31.73;;;14.30;;
76131;SDS011;64877;50.994;13.650;2023-03-04T00:15:01;29.60;;;13.38;;
76131;SDS011;64877;50.994;13.650;2023-03-04T00:17:26;34.85;;;15.27;;
76131;SDS011;64877;50.994;13.650;2023-03-04T00:19:54;30.85;;;14.13;;
76131;SDS011;64877;50.994;13.650;2023-03-04T00:22:20;36.75;;;15.50;;
76131;SDS011;64877;50.994;13.650;2023-03-04T00:24:45;31.73;;;14.07;;
76131;SDS011;64877;50.994;13.650;2023-03-04T00:27:11;32.97;;;13.57;;
76131;SDS011;64877;50.994;13.650;2023-03-04T00:29:36;33.20;;;13.98;;
76131;SDS011;64877;50.994;13.650;2023-03-04T00:32:01;30.48;;;13.65;;
76131;SDS011;64877;50.994;13.650;2023-03-04T00:34:27;32.03;;;13.25;;
76131;SDS011;64877;50.994;13.650;2023-03-04T00:36:52;33.25;;;15.07;;
76131;SDS011;64877;50.994;13.650;2023-03-04T00:39:18;34.22;;;14.30;;
76131;SDS011;64877;50.994;13.650;2023-03-04T00:41:44;30.95;;;13.50;;
76131;SDS011;64877;50.994;13.650;2023-03-04T00:44:09;31.67;;;13.70;;
76131;SDS011;64877;50.994;13.650;2023-03-04T00:46:34;34.05;;;14.15;;
76131;SDS011;64877;50.994;13.650;2023-03-04T00:49:00;29.48;;;14.13;;
76131;SDS011;64877;50.994;13.650;2023-03-04T00:51:25;31.10;;;14.10;;
76131;SDS011;64877;50.994;13.650;2023-03-04T00:53:51;32.80;;;14.30;;
76131;SDS011;64877;50.994;13.650;2023-03-04T00:56:16;32.80;;;14.85;;
76131;SDS011;64877;50.994;13.650;2023-03-04T00:58:42;34.53;;;14.00;;
76131;SDS011;64877;50.994;13.650;2023-03-04T01:01:07;33.85;;;14.32;;
76131;SDS011;64877;50.994;13.650;2023-03-04T01:03:33;31.17;;;14.00;;
76131;SDS011;64877;50.994;13.650;2023-03-04T01:05:58;30.58;;;13.60;;
76131;SDS011;64877;50.994;13.650;2023-03-04T01:08:24;31.38;;;13.77;;
76131;SDS011;64877;50.994;13.650;2023-03-04T01:10:50;29.23;;;12.77;;
76131;SDS011;64877;50.994;13.650;2023-03-04T01:13:16;25.55;;;13.02;;
76131;SDS011;64877;50.994;13.650;2023-03-04T01:15:41;27.98;;;12.82;;
76131;SDS011;64877;50.994;13.650;2023-03-04T01:18:07;28.98;;;12.60;;
76131;SDS011;64877;50.994;13.650;2023-03-04T01:20:32;29.52;;;12.52;;
76131;SDS011;64877;50.994;13.650;2023-03-04T01:22:58;27.75;;;12.48;;
76131;SDS011;64877;50.994;13.650;2023-03-04T01:25:23;25.92;;;12.10;;
76131;SDS011;64877;50.994;13.650;2023-03-04T01:27:49;27.70;;;12.00;;
76131;SDS011;64877;50.994;13.650;2023-03-04T01:30:14;27.48;;;12.85;;
76131;SDS011;64877;50.994;13.650;2023-03-04T01:32:39;30.08;;;11.85;;
76131;SDS011;64877;50.994;13.650;2023-03-04T01:35:05;31.13;;;13.60;;
76131;SDS011;64877;50.994;13.650;2023-03-04T01:37:30;26.02;;;11.75;;
76131;SDS011;64877;50.994;13.650;2023-03-04T01:39:56;23.75;;;11.98;;
76131;SDS011;64877;50.994;13.650;2023-03-04T01:42:22;25.30;;;11.30;;
76131;SDS011;64877;50.994;13.650;2023-03-04T01:44:50;28.92;;;12.95;;
76131;SDS011;64877;50.994;13.650;2023-03-04T01:47:16;24.45;;;11.50;;
76131;SDS011;64877;50.994;13.650;2023-03-04T01:49:43;28.33;;;11.95;;
76131;SDS011;64877;50.994;13.650;2023-03-04T01:52:11;23.67;;;12.43;;
76131;SDS011;64877;50.994;13.650;2023-03-04T01:54:38;22.05;;;11.52;;
76131;SDS011;64877;50.994;13.650;2023-03-04T01:57:14;25.58;;;11.95;;
76131;SDS011;64877;50.994;13.650;2023-03-04T01:59:44;24.70;;;11.48;;
76131;SDS011;64877;50.994;13.650;2023-03-04T02:02:11;21.83;;;11.13;;
76131;SDS011;64877;50.994;13.650;2023-03-04T02:04:37;21.08;;;11.27;;
76131;SDS011;64877;50.994;13.650;2023-03-04T02:07:04;20.08;;;9.80;;
76131;SDS011;64877;50.994;13.650;2023-03-04T02:09:30;21.45;;;11.70;;
76131;SDS011;64877;50.994;13.650;2023-03-04T02:11:57;21.73;;;11.75;;
76131;SDS011;64877;50.994;13.650;2023-03-04T02:14:23;23.88;;;11.27;;
76131;SDS011;64877;50.994;13.650;2023-03-04T02:16:49;20.08;;;10.35;;
76131;SDS011;64877;50.994;13.650;2023-03-04T02:19:18;24.13;;;12.05;;
76131;SDS011;64877;50.994;13.650;2023-03-04T02:22:13;21.42;;;10.77;;
76131;SDS011;64877;50.994;13.650;2023-03-04T02:24:45;21.60;;;10.57;;
76131;SDS011;64877;50.994;13.650;2023-03-04T02:27:21;17.33;;;10.43;;
76131;SDS011;64877;50.994;13.650;2023-03-04T02:29:47;18.55;;;11.02;;
76131;SDS011;64877;50.994;13.650;2023-03-04T02:32:12;22.45;;;11.43;;
76131;SDS011;64877;50.994;13.650;2023-03-04T02:34:44;20.17;;;11.60;;
76131;SDS011;64877;50.994;13.650;2023-03-04T02:37:11;19.17;;;10.82;;
76131;SDS011;64877;50.994;13.650;2023-03-04T02:39:44;21.38;;;11.18;;
76131;SDS011;64877;50.994;13.650;2023-03-04T02:44:38;25.85;;;12.15;;
76131;SDS011;64877;50.994;13.650;2023-03-04T02:47:06;20.52;;;10.45;;
76131;SDS011;64877;50.994;13.650;2023-03-04T02:49:35;24.77;;;11.32;;
76131;SDS011;64877;50.994;13.650;2023-03-04T02:52:06;23.65;;;12.30;;
76131;SDS011;64877;50.994;13.650;2023-03-04T02:54:33;23.77;;;12.43;;
76131;SDS011;64877;50.994;13.650;2023-03-04T02:57:02;22.30;;;11.68;;
76131;SDS011;64877;50.994;13.650;2023-03-04T02:59:29;24.65;;;12.10;;
76131;SDS011;64877;50.994;13.650;2023-03-04T03:01:55;22.55;;;11.65;;
76131;SDS011;64877;50.994;13.650;2023-03-04T03:04:20;21.65;;;11.48;;
76131;SDS011;64877;50.994;13.650;2023-03-04T03:06:47;20.45;;;11.00;;
76131;SDS011;64877;50.994;13.650;2023-03-04T03:09:12;24.95;;;12.05;;
76131;SDS011;64877;50.994;13.650;2023-03-04T03:11:37;20.55;;;10.82;;
76131;SDS011;64877;50.994;13.650;2023-03-04T03:14:03;23.13;;;11.25;;
76131;SDS011;64877;50.994;13.650;2023-03-04T03:16:29;19.95;;;11.75;;
76131;SDS011;64877;50.994;13.650;2023-03-04T03:18:54;23.95;;;12.45;;
76131;SDS011;64877;50.994;13.650;2023-03-04T03:21:20;20.25;;;10.98;;
76131;SDS011;64877;50.994;13.650;2023-03-04T03:23:45;21.45;;;10.82;;
76131;SDS011;64877;50.994;13.650;2023-03-04T03:26:12;20.90;;;10.10;;
76131;SDS011;64877;50.994;13.650;2023-03-04T03:28:37;21.02;;;11.00;;
76131;SDS011;64877;50.994;13.650;2023-03-04T03:31:03;19.40;;;10.75;;
76131;SDS011;64877;50.994;13.650;2023-03-04T03:33:28;23.95;;;12.30;;
76131;SDS011;64877;50.994;13.650;2023-03-04T03:35:54;22.80;;;11.88;;
76131;SDS011;64877;50.994;13.650;2023-03-04T03:38:19;24.38;;;11.07;;
76131;SDS011;64877;50.994;13.650;2023-03-04T03:40:44;20.77;;;11.48;;
76131;SDS011;64877;50.994;13.650;2023-03-04T03:43:10;19.80;;;10.63;;
76131;SDS011;64877;50.994;13.650;2023-03-04T03:45:35;21.05;;;10.82;;
76131;SDS011;64877;50.994;13.650;2023-03-04T03:48:01;19.83;;;10.25;;
76131;SDS011;64877;50.994;13.650;2023-03-04T03:50:26;21.38;;;11.02;;
76131;SDS011;64877;50.994;13.650;2023-03-04T03:52:53;23.58;;;10.75;;
76131;SDS011;64877;50.994;13.650;2023-03-04T03:55:18;17.80;;;9.73;;
76131;SDS011;64877;50.994;13.650;2023-03-04T03:57:44;21.83;;;11.13;;
76131;SDS011;64877;50.994;13.650;2023-03-04T04:00:09;19.85;;;9.82;;
76131;SDS011;64877;50.994;13.650;2023-03-04T04:02:35;22.60;;;10.10;;
76131;SDS011;64877;50.994;13.650;2023-03-04T04:05:01;19.73;;;10.10;;
76131;SDS011;64877;50.994;13.650;2023-03-04T04:07:26;16.48;;;9.98;;
76131;SDS011;64877;50.994;13.650;2023-03-04T04:09:51;19.55;;;9.75;;
76131;SDS011;64877;50.994;13.650;2023-03-04T04:12:17;21.73;;;10.35;;
76131;SDS011;64877;50.994;13.650;2023-03-04T04:14:43;20.90;;;9.95;;
76131;SDS011;64877;50.994;13.650;2023-03-04T04:17:09;22.30;;;10.60;;
76131;SDS011;64877;50.994;13.650;2023-03-04T04:19:35;20.17;;;10.30;;
76131;SDS011;64877;50.994;13.650;2023-03-04T04:22:01;20.13;;;10.05;;
76131;SDS011;64877;50.994;13.650;2023-03-04T04:24:27;21.23;;;10.02;;
76131;SDS011;64877;50.994;13.650;2023-03-04T04:26:52;20.88;;;10.07;;
76131;SDS011;64877;50.994;13.650;2023-03-04T04:29:17;21.48;;;9.85;;
76131;SDS011;64877;50.994;13.650;2023-03-04T04:31:43;19.25;;;10.52;;
76131;SDS011;64877;50.994;13.650;2023-03-04T04:34:08;19.15;;;10.65;;
76131;SDS011;64877;50.994;13.650;2023-03-04T04:36:34;20.23;;;10.23;;
76131;SDS011;64877;50.994;13.650;2023-03-04T04:39:00;23.35;;;10.13;;
76131;SDS011;64877;50.994;13.650;2023-03-04T04:41:27;19.25;;;10.63;;
76131;SDS011;64877;50.994;13.650;2023-03-04T04:43:55;18.60;;;10.23;;
76131;SDS011;64877;50.994;13.650;2023-03-04T04:46:21;18.92;;;10.07;;
76131;SDS011;64877;50.994;13.650;2023-03-04T04:48:47;18.85;;;8.93;;
76131;SDS011;64877;50.994;13.650;2023-03-04T04:51:13;17.20;;;9.55;;
76131;SDS011;64877;50.994;13.650;2023-03-04T04:53:38;21.02;;;10.23;;
76131;SDS011;64877;50.994;13.650;2023-03-04T04:56:08;21.85;;;10.25;;
76131;SDS011;64877;50.994;13.650;2023-03-04T04:58:34;18.08;;;9.50;;
76131;SDS011;64877;50.994;13.650;2023-03-04T05:01:00;22.95;;;10.13;;
76131;SDS011;64877;50.994;13.650;2023-03-04T05:03:25;20.02;;;9.35;;
76131;SDS011;64877;50.994;13.650;2023-03-04T05:05:51;18.77;;;8.85;;
76131;SDS011;64877;50.994;13.650;2023-03-04T05:08:16;18.15;;;9.43;;
76131;SDS011;64877;50.994;13.650;2023-03-04T05:10:41;18.25;;;8.95;;
76131;SDS011;64877;50.994;13.650;2023-03-04T05:13:07;19.40;;;9.40;;
76131;SDS011;64877;50.994;13.650;2023-03-04T05:15:32;19.67;;;10.20;;
76131;SDS011;64877;50.994;13.650;2023-03-04T05:17:58;17.17;;;9.13;;
76131;SDS011;64877;50.994;13.650;2023-03-04T05:20:23;18.77;;;9.00;;
76131;SDS011;64877;50.994;13.650;2023-03-04T05:22:49;18.45;;;8.60;;
76131;SDS011;64877;50.994;13.650;2023-03-04T05:25:15;17.02;;;9.48;;
76131;SDS011;64877;50.994;13.650;2023-03-04T05:27:40;19.45;;;8.50;;
76131;SDS011;64877;50.994;13.650;2023-03-04T05:30:06;20.05;;;8.82;;
76131;SDS011;64877;50.994;13.650;2023-03-04T05:32:31;18.58;;;9.52;;
76131;SDS011;64877;50.994;13.650;2023-03-04T05:34:57;22.88;;;9.30;;
76131;SDS011;64877;50.994;13.650;2023-03-04T05:37:22;24.70;;;9.95;;
76131;SDS011;64877;50.994;13.650;2023-03-04T05:39:48;23.70;;;10.80;;
76131;SDS011;64877;50.994;13.650;2023-03-04T05:42:13;16.00;;;8.75;;
76131;SDS011;64877;50.994;13.650;2023-03-04T05:44:38;18.60;;;9.48;;
76131;SDS011;64877;50.994;13.650;2023-03-04T05:47:04;20.20;;;9.63;;
76131;SDS011;64877;50.994;13.650;2023-03-04T05:49:29;20.15;;;9.63;;
76131;SDS011;64877;50.994;13.650;2023-03-04T05:51:54;23.38;;;9.07;;
76131;SDS011;64877;50.994;13.650;2023-03-04T05:54:20;17.05;;;9.40;;
76131;SDS011;64877;50.994;13.650;2023-03-04T05:56:45;19.85;;;9.60;;
76131;SDS011;64877;50.994;13.650;2023-03-04T05:59:11;19.98;;;9.80;;
76131;SDS011;64877;50.994;13.650;2023-03-04T06:01:36;17.23;;;9.13;;
76131;SDS011;64877;50.994;13.650;2023-03-04T06:04:02;23.30;;;9.65;;
76131;SDS011;64877;50.994;13.650;2023-03-04T06:06:27;20.98;;;9.38;;
76131;SDS011;64877;50.994;13.650;2023-03-04T06:08:53;22.75;;;9.35;;
76131;SDS011;64877;50.994;13.650;2023-03-04T06:11:18;21.38;;;10.05;;
76131;SDS011;64877;50.994;13.650;2023-03-04T06:13:43;15.68;;;9.25;;
76131;SDS011;64877;50.994;13.650;2023-03-04T06:16:09;21.63;;;9.30;;
76131;SDS011;64877;50.994;13.650;2023-03-04T06:18:34;27.23;;;9.57;;
76131;SDS011;64877;50.994;13.650;2023-03-04T06:21:00;18.73;;;9.88;;
76131;SDS011;64877;50.994;13.650;2023-03-04T06:23:27;25.55;;;9.25;;
76131;SDS011;64877;50.994;13.650;2023-03-04T06:25:53;22.35;;;9.40;;
76131;SDS011;64877;50.994;13.650;2023-03-04T06:28:20;19.58;;;8.38;;
76131;SDS011;64877;50.994;13.650;2023-03-04T06:30:46;20.48;;;8.77;;
76131;SDS011;64877;50.994;13.650;2023-03-04T06:33:12;22.58;;;9.85;;
76131;SDS011;64877;50.994;13.650;2023-03-04T06:35:37;21.50;;;9.63;;
76131;SDS011;64877;50.994;13.650;2023-03-04T06:38:03;20.75;;;10.10;;
76131;SDS011;64877;50.994;13.650;2023-03-04T06:40:28;19.27;;;9.10;;
76131;SDS011;64877;50.994;13.650;2023-03-04T06:42:53;25.05;;;9.73;;
76131;SDS011;64877;50.994;13.650;2023-03-04T06:45:19;18.25;;;8.98;;
76131;SDS011;64877;50.994;13.650;2023-03-04T06:47:44;27.42;;;9.55;;
76131;SDS011;64877;50.994;13.650;2023-03-04T06:50:10;28.27;;;10.00;;
76131;SDS011;64877;50.994;13.650;2023-03-04T06:52:37;21.13;;;9.63;;
76131;SDS011;64877;50.994;13.650;2023-03-04T06:55:03;23.90;;;10.20;;
76131;SDS011;64877;50.994;13.650;2023-03-04T06:57:29;22.92;;;10.60;;
76131;SDS011;64877;50.994;13.650;2023-03-04T06:59:54;24.30;;;10.25;;
76131;SDS011;64877;50.994;13.650;2023-03-04T07:02:20;23.27;;;9.43;;
76131;SDS011;64877;50.994;13.650;2023-03-04T07:04:45;23.05;;;9.40;;
76131;SDS011;64877;50.994;13.650;2023-03-04T07:07:11;20.73;;;9.48;;
76131;SDS011;64877;50.994;13.650;2023-03-04T07:09:36;19.25;;;9.27;;
76131;SDS011;64877;50.994;13.650;2023-03-04T07:12:02;21.60;;;8.90;;
76131;SDS011;64877;50.994;13.650;2023-03-04T07:14:27;19.60;;;8.85;;
76131;SDS011;64877;50.994;13.650;2023-03-04T07:16:53;25.75;;;9.07;;
76131;SDS011;64877;50.994;13.650;2023-03-04T07:19:18;18.40;;;8.20;;
76131;SDS011;64877;50.994;13.650;2023-03-04T07:21:44;17.23;;;8.68;;
76131;SDS011;64877;50.994;13.650;2023-03-04T07:24:10;18.05;;;8.38;;
76131;SDS011;64877;50.994;13.650;2023-03-04T07:26:36;21.98;;;8.23;;
76131;SDS011;64877;50.994;13.650;2023-03-04T07:29:02;19.10;;;8.85;;
76131;SDS011;64877;50.994;13.650;2023-03-04T07:31:29;18.38;;;8.07;;
76131;SDS011;64877;50.994;13.650;2023-03-04T07:33:57;19.75;;;7.70;;
76131;SDS011;64877;50.994;13.650;2023-03-04T07:36:24;19.75;;;8.32;;
76131;SDS011;64877;50.994;13.650;2023-03-04T07:38:50;18.00;;;7.78;;
76131;SDS011;64877;50.994;13.650;2023-03-04T07:41:16;17.92;;;8.57;;
76131;SDS011;64877;50.994;13.650;2023-03-04T07:43:42;17.55;;;7.68;;
76131;SDS011;64877;50.994;13.650;2023-03-04T07:46:08;16.95;;;8.43;;
76131;SDS011;64877;50.994;13.650;2023-03-04T07:48:34;18.27;;;8.48;;
76131;SDS011;64877;50.994;13.650;2023-03-04T07:53:40;21.83;;;7.72;;
76131;SDS011;64877;50.994;13.650;2023-03-04T07:56:07;16.77;;;8.05;;
76131;SDS011;64877;50.994;13.650;2023-03-04T07:58:35;15.75;;;7.03;;
76131;SDS011;64877;50.994;13.650;2023-03-04T08:01:05;16.42;;;7.72;;
76131;SDS011;64877;50.994;13.650;2023-03-04T08:03:33;20.20;;;8.20;;
76131;SDS011;64877;50.994;13.650;2023-03-04T08:05:58;18.63;;;8.02;;
76131;SDS011;64877;50.994;13.650;2023-03-04T08:08:24;16.00;;;7.55;;
76131;SDS011;64877;50.994;13.650;2023-03-04T08:10:49;19.98;;;7.72;;
76131;SDS011;64877;50.994;13.650;2023-03-04T08:13:14;19.65;;;8.20;;
76131;SDS011;64877;50.994;13.650;2023-03-04T08:15:40;16.08;;;8.23;;
76131;SDS011;64877;50.994;13.650;2023-03-04T08:18:06;13.60;;;7.70;;
76131;SDS011;64877;50.994;13.650;2023-03-04T08:20:31;18.13;;;8.07;;
76131;SDS011;64877;50.994;13.650;2023-03-04T08:22:57;20.42;;;8.20;;
76131;SDS011;64877;50.994;13.650;2023-03-04T08:25:22;15.95;;;7.57;;
76131;SDS011;64877;50.994;13.650;2023-03-04T08:27:47;15.00;;;8.25;;
76131;SDS011;64877;50.994;13.650;2023-03-04T08:30:13;24.92;;;8.70;;
76131;SDS011;64877;50.994;13.650;2023-03-04T08:32:39;16.45;;;8.07;;
76131;SDS011;64877;50.994;13.650;2023-03-04T08:35:04;20.63;;;8.32;;
76131;SDS011;64877;50.994;13.650;2023-03-04T08:37:29;19.17;;;8.57;;
76131;SDS011;64877;50.994;13.650;2023-03-04T08:39:55;16.90;;;7.38;;
76131;SDS011;64877;50.994;13.650;2023-03-04T08:42:20;15.30;;;8.02;;
76131;SDS011;64877;50.994;13.650;2023-03-04T08:44:48;19.45;;;7.60;;
76131;SDS011;64877;50.994;13.650;2023-03-04T08:47:13;17.40;;;7.30;;
76131;SDS011;64877;50.994;13.650;2023-03-04T08:49:39;13.07;;;6.72;;
76131;SDS011;64877;50.994;13.650;2023-03-04T08:52:04;14.32;;;7.22;;
76131;SDS011;64877;50.994;13.650;2023-03-04T08:54:30;12.73;;;6.22;;
76131;SDS011;64877;50.994;13.650;2023-03-04T08:56:55;16.70;;;7.55;;
76131;SDS011;64877;50.994;13.650;2023-03-04T08:59:20;14.82;;;7.30;;
76131;SDS011;64877;50.994;13.650;2023-03-04T09:01:46;16.83;;;7.13;;
76131;SDS011;64877;50.994;13.650;2023-03-04T09:04:11;13.07;;;6.70;;
76131;SDS011;64877;50.994;13.650;2023-03-04T09:06:37;14.85;;;6.85;;
76131;SDS011;64877;50.994;13.650;2023-03-04T09:09:03;17.73;;;7.63;;
76131;SDS011;64877;50.994;13.650;2023-03-04T09:11:28;12.55;;;6.82;;
76131;SDS011;64877;50.994;13.650;2023-03-04T09:13:54;19.08;;;6.38;;
76131;SDS011;64877;50.994;13.650;2023-03-04T09:16:20;17.65;;;7.45;;
76131;SDS011;64877;50.994;13.650;2023-03-04T09:18:45;18.08;;;6.68;;
76131;SDS011;64877;50.994;13.650;2023-03-04T09:21:11;24.30;;;6.47;;
76131;SDS011;64877;50.994;13.650;2023-03-04T09:23:36;13.02;;;5.88;;
76131;SDS011;64877;50.994;13.650;2023-03-04T09:28:58;13.35;;;5.25;;
76131;SDS011;64877;50.994;13.650;2023-03-04T09:31:25;14.90;;;6.55;;
76131;SDS011;64877;50.994;13.650;2023-03-04T09:33:53;14.73;;;6.00;;
76131;SDS011;64877;50.994;13.650;2023-03-04T09:36:20;12.25;;;6.20;;
76131;SDS011;64877;50.994;13.650;2023-03-04T09:38:46;17.77;;;6.03;;
76131;SDS011;64877;50.994;13.650;2023-03-04T09:41:16;17.02;;;5.50;;
76131;SDS011;64877;50.994;13.650;2023-03-04T09:43:45;14.00;;;6.40;;
76131;SDS011;64877;50.994;13.650;2023-03-04T09:46:13;13.77;;;5.65;;
76131;SDS011;64877;50.994;13.650;2023-03-04T09:48:46;13.15;;;6.18;;
76131;SDS011;64877;50.994;13.650;2023-03-04T09:51:20;12.38;;;5.35;;
76131;SDS011;64877;50.994;13.650;2023-03-04T09:56:50;16.35;;;5.60;;
76131;SDS011;64877;50.994;13.650;2023-03-04T09:59:39;13.73;;;5.40;;
76131;SDS011;64877;50.994;13.650;2023-03-04T10:02:14;13.60;;;5.30;;
76131;SDS011;64877;50.994;13.650;2023-03-04T10:04:54;10.05;;;5.13;;
76131;SDS011;64877;50.994;13.650;2023-03-04T10:07:27;12.80;;;5.80;;
76131;SDS011;64877;50.994;13.650;2023-03-04T10:12:31;14.52;;;5.20;;
76131;SDS011;64877;50.994;13.650;2023-03-04T10:20:52;12.30;;;5.85;;
76131;SDS011;64877;50.994;13.650;2023-03-04T10:23:23;11.48;;;5.00;;
76131;SDS011;64877;50.994;13.650;2023-03-04T10:25:51;12.80;;;5.88;;
76131;SDS011;64877;50.994;13.650;2023-03-04T10:33:36;10.57;;;4.40;;
76131;SDS011;64877;50.994;13.650;2023-03-04T10:36:04;13.63;;;4.85;;
76131;SDS011;64877;50.994;13.650;2023-03-04T10:38:42;8.48;;;4.35;;
76131;SDS011;64877;50.994;13.650;2023-03-04T10:41:42;13.45;;;4.63;;
76131;SDS011;64877;50.994;13.650;2023-03-04T10:44:11;9.02;;;4.53;;
76131;SDS011;64877;50.994;13.650;2023-03-04T10:46:39;10.18;;;4.88;;
76131;SDS011;64877;50.994;13.650;2023-03-04T10:49:05;13.38;;;4.90;;
76131;SDS011;64877;50.994;13.650;2023-03-04T10:51:30;8.45;;;3.47;;
76131;SDS011;64877;50.994;13.650;2023-03-04T10:53:57;10.88;;;3.78;;
76131;SDS011;64877;50.994;13.650;2023-03-04T10:56:37;9.40;;;4.25;;
76131;SDS011;64877;50.994;13.650;2023-03-04T11:01:49;12.07;;;5.03;;
76131;SDS011;64877;50.994;13.650;2023-03-04T11:04:18;10.20;;;3.83;;
76131;SDS011;64877;50.994;13.650;2023-03-04T11:06:47;9.65;;;4.07;;
76131;SDS011;64877;50.994;13.650;2023-03-04T11:09:26;12.20;;;4.25;;
76131;SDS011;64877;50.994;13.650;2023-03-04T11:11:54;9.75;;;4.05;;
76131;SDS011;64877;50.994;13.650;2023-03-04T11:14:24;9.57;;;4.10;;
76131;SDS011;64877;50.994;13.650;2023-03-04T11:17:01;8.95;;;3.38;;
76131;SDS011;64877;50.994;13.650;2023-03-04T11:19:40;16.13;;;4.07;;
76131;SDS011;64877;50.994;13.650;2023-03-04T11:22:09;9.57;;;3.38;;
76131;SDS011;64877;50.994;13.650;2023-03-04T11:24:39;9.82;;;4.43;;
76131;SDS011;64877;50.994;13.650;2023-03-04T11:27:11;7.45;;;3.13;;
76131;SDS011;64877;50.994;13.650;2023-03-04T11:29:44;7.95;;;3.72;;
76131;SDS011;64877;50.994;13.650;2023-03-04T11:37:28;9.48;;;3.90;;
76131;SDS011;64877;50.994;13.650;2023-03-04T11:40:17;11.90;;;3.80;;
76131;SDS011;64877;50.994;13.650;2023-03-04T11:42:54;13.90;;;3.80;;
76131;SDS011;64877;50.994;13.650;2023-03-04T11:48:44;9.85;;;3.42;;
76131;SDS011;64877;50.994;13.650;2023-03-04T11:57:05;6.65;;;3.22;;
76131;SDS011;64877;50.994;13.650;2023-03-04T12:02:51;10.07;;;4.22;;
76131;SDS011;64877;50.994;13.650;2023-03-04T12:05:40;10.10;;;3.60;;
76131;SDS011;64877;50.994;13.650;2023-03-04T12:11:05;10.40;;;3.80;;
76131;SDS011;64877;50.994;13.650;2023-03-04T12:27:30;10.30;;;3.92;;
76131;SDS011;64877;50.994;13.650;2023-03-04T12:30:32;10.00;;;3.13;;
76131;SDS011;64877;50.994;13.650;2023-03-04T12:33:14;12.00;;;5.05;;
76131;SDS011;64877;50.994;13.650;2023-03-04T12:41:25;9.25;;;3.47;;
76131;SDS011;64877;50.994;13.650;2023-03-04T12:43:57;14.85;;;3.67;;
76131;SDS011;64877;50.994;13.650;2023-03-04T12:47:18;9.70;;;3.72;;
76131;SDS011;64877;50.994;13.650;2023-03-04T12:52:15;7.28;;;3.00;;
76131;SDS011;64877;50.994;13.650;2023-03-04T12:54:46;6.65;;;3.25;;
76131;SDS011;64877;50.994;13.650;2023-03-04T12:57:19;9.68;;;3.28;;
76131;SDS011;64877;50.994;13.650;2023-03-04T12:59:54;9.60;;;4.00;;
76131;SDS011;64877;50.994;13.650;2023-03-04T13:10:51;6.95;;;3.30;;
76131;SDS011;64877;50.994;13.650;2023-03-04T13:16:29;10.52;;;3.33;;
76131;SDS011;64877;50.994;13.650;2023-03-04T13:18:58;14.40;;;3.65;;
76131;SDS011;64877;50.994;13.650;2023-03-04T13:21:25;11.88;;;3.78;;
76131;SDS011;64877;50.994;13.650;2023-03-04T13:23:52;9.40;;;3.30;;
76131;SDS011;64877;50.994;13.650;2023-03-04T13:31:55;8.45;;;2.60;;
76131;SDS011;64877;50.994;13.650;2023-03-04T13:42:47;5.35;;;2.08;;
76131;SDS011;64877;50.994;13.650;2023-03-04T13:47:56;5.45;;;2.28;;
76131;SDS011;64877;50.994;13.650;2023-03-04T13:50:26;4.72;;;2.08;;
76131;SDS011;64877;50.994;13.650;2023-03-04T13:53:18;6.07;;;2.10;;
76131;SDS011;64877;50.994;13.650;2023-03-04T13:58:34;6.45;;;2.28;;
76131;SDS011;64877;50.994;13.650;2023-03-04T14:01:01;6.25;;;2.20;;
76131;SDS011;64877;50.994;13.650;2023-03-04T14:03:28;7.57;;;2.40;;
76131;SDS011;64877;50.994;13.650;2023-03-04T14:08:35;5.55;;;2.40;;
76131;SDS011;64877;50.994;13.650;2023-03-04T14:11:00;7.25;;;2.20;;
76131;SDS011;64877;50.994;13.650;2023-03-04T14:13:26;6.22;;;2.10;;
76131;SDS011;64877;50.994;13.650;2023-03-04T14:15:53;6.93;;;2.63;;
76131;SDS011;64877;50.994;13.650;2023-03-04T14:18:20;6.15;;;2.30;;
76131;SDS011;64877;50.994;13.650;2023-03-04T14:20:49;7.40;;;2.30;;
76131;SDS011;64877;50.994;13.650;2023-03-04T14:23:26;6.85;;;2.20;;
76131;SDS011;64877;50.994;13.650;2023-03-04T14:26:06;6.20;;;3.20;;
76131;SDS011;64877;50.994;13.650;2023-03-04T14:28:42;7.85;;;2.65;;
76131;SDS011;64877;50.994;13.650;2023-03-04T14:31:21;7.28;;;2.70;;
76131;SDS011;64877;50.994;13.650;2023-03-04T14:33:50;8.15;;;2.83;;
76131;SDS011;64877;50.994;13.650;2023-03-04T14:36:24;6.30;;;2.42;;
76131;SDS011;64877;50.994;13.650;2023-03-04T14:39:00;6.22;;;2.28;;
76131;SDS011;64877;50.994;13.650;2023-03-04T14:41:30;5.75;;;2.30;;
76131;SDS011;64877;50.994;13.650;2023-03-04T14:47:07;4.88;;;1.98;;
76131;SDS011;64877;50.994;13.650;2023-03-04T14:49:52;7.22;;;2.72;;
76131;SDS011;64877;50.994;13.650;2023-03-04T14:52:37;5.22;;;2.20;;
76131;SDS011;64877;50.994;13.650;2023-03-04T14:57:39;5.32;;;2.38;;
76131;SDS011;64877;50.994;13.650;2023-03-04T15:00:16;4.80;;;2.10;;
76131;SDS011;64877;50.994;13.650;2023-03-04T15:02:49;7.57;;;2.72;;
76131;SDS011;64877;50.994;13.650;2023-03-04T15:07:42;6.60;;;2.67;;
76131;SDS011;64877;50.994;13.650;2023-03-04T15:10:18;8.90;;;2.80;;
76131;SDS011;64877;50.994;13.650;2023-03-04T15:12:49;5.13;;;2.47;;
76131;SDS011;64877;50.994;13.650;2023-03-04T15:15:33;11.00;;;2.85;;
76131;SDS011;64877;50.994;13.650;2023-03-04T15:18:22;7.88;;;2.67;;
76131;SDS011;64877;50.994;13.650;2023-03-04T15:23:20;7.68;;;2.08;;
76131;SDS011;64877;50.994;13.650;2023-03-04T15:25:45;6.60;;;1.70;;
76131;SDS011;64877;50.994;13.650;2023-03-04T15:28:15;6.82;;;1.88;;
76131;SDS011;64877;50.994;13.650;2023-03-04T15:30:42;7.22;;;1.95;;
76131;SDS011;64877;50.994;13.650;2023-03-04T15:33:09;12.43;;;1.67;;
76131;SDS011;64877;50.994;13.650;2023-03-04T15:38:02;15.00;;;3.35;;
76131;SDS011;64877;50.994;13.650;2023-03-04T15:40:32;9.02;;;2.30;;
76131;SDS011;64877;50.994;13.650;2023-03-04T15:42:58;9.90;;;2.58;;
76131;SDS011;64877;50.994;13.650;2023-03-04T15:45:27;9.68;;;1.80;;
76131;SDS011;64877;50.994;13.650;2023-03-04T15:47:59;7.10;;;1.80;;
76131;SDS011;64877;50.994;13.650;2023-03-04T15:50:28;11.65;;;2.28;;
76131;SDS011;64877;50.994;13.650;2023-03-04T15:52:58;9.02;;;2.13;;
76131;SDS011;64877;50.994;13.650;2023-03-04T15:55:26;12.80;;;3.05;;
76131;SDS011;64877;50.994;13.650;2023-03-04T15:57:53;7.82;;;2.22;;
76131;SDS011;64877;50.994;13.650;2023-03-04T16:00:20;9.65;;;2.22;;
76131;SDS011;64877;50.994;13.650;2023-03-04T16:02:46;8.85;;;1.80;;
76131;SDS011;64877;50.994;13.650;2023-03-04T16:05:12;7.13;;;1.63;;
76131;SDS011;64877;50.994;13.650;2023-03-04T16:07:40;7.97;;;1.80;;
76131;SDS011;64877;50.994;13.650;2023-03-04T16:10:27;7.05;;;1.98;;
76131;SDS011;64877;50.994;13.650;2023-03-04T16:12:55;9.90;;;2.00;;
76131;SDS011;64877;50.994;13.650;2023-03-04T16:15:21;11.82;;;2.13;;
76131;SDS011;64877;50.994;13.650;2023-03-04T16:17:49;12.80;;;2.20;;
76131;SDS011;64877;50.994;13.650;2023-03-04T16:20:16;10.35;;;2.38;;
76131;SDS011;64877;50.994;13.650;2023-03-04T16:22:44;7.68;;;2.03;;